»·PEaware :: ASA180 KYKM-KGPI

ASA180 :: KYKM-KGPI

FLIGHT INFORMATION

Flight Status: Arrived
Operator:
Alaska Airlines
More flights by this operator :: More flights under this callsign
Pilot: Etienne B. (28927)
Aircraft: AIRBUS A320
(A320)
More flights by this aircraft type
Origin: KYKM Yakima Air Term/Mcallister
United States
Destination: KGPI Glacier Park Intl
United States
More flights between these airports :: More routes between these airports
Route: +GROMO4 PAPPS
File this flight plan on PilotEdge
Remarks: RMK / SIMBRIEF
Altitude:
(Current/Filed)
37,000ft
Speed:
(Current/Filed)
447kts
Departed: 15-May-20 04:48 PM
Arrived: 15-May-20 05:54 PM
Distance/Time
Traveled:
276nm/1:06
Distance/Time
To Go:
Arrived

Flight Plot

Page will automatically refresh every two minutes.


Map Options




Map Legend


Flown Route
Filed Route
Departure Airport
Arrival Airport
Navaid (VOR, NDB)
Fix

Horizontal Profiles

Position Reports

Time Latitude Longitude Heading Altitude Ground
Speed
15-May-20 16:24 46.569874 -120.540555 107 1070ft 0kts
15-May-20 16:25 46.569874 -120.540555 107 1070ft 0kts
15-May-20 16:26 46.569874 -120.540555 107 1070ft 0kts
15-May-20 16:27 46.569874 -120.540555 107 1070ft 0kts
15-May-20 16:28 46.569874 -120.540555 107 1070ft 0kts
15-May-20 16:29 46.569874 -120.540555 107 1070ft 0kts
15-May-20 16:30 46.569874 -120.540555 107 1070ft 0kts
15-May-20 16:31 46.569874 -120.540555 107 1070ft 0kts
15-May-20 16:32 46.569874 -120.540555 107 1070ft 0kts
15-May-20 16:33 46.569874 -120.540555 107 1070ft 0kts
15-May-20 16:35 46.569874 -120.540555 107 1070ft 0kts
15-May-20 16:36 46.569874 -120.540555 107 1070ft 0kts
15-May-20 16:37 46.569874 -120.540555 107 1070ft 0kts
15-May-20 16:38 46.569874 -120.540555 107 1070ft 0kts
15-May-20 16:39 46.569874 -120.540555 107 1070ft 0kts
15-May-20 16:40 46.569874 -120.540555 107 1070ft 0kts
15-May-20 16:41 46.569876 -120.540561 108 1070ft 0kts
15-May-20 16:42 46.569847 -120.541267 86 1071ft 2kts
15-May-20 16:43 46.569836 -120.541807 105 1072ft 0kts
15-May-20 16:44 46.569836 -120.541806 105 1072ft 0kts
15-May-20 16:45 46.569836 -120.541806 105 1072ft 0kts
15-May-20 16:46 46.568242 -120.537757 109 1064ft 18kts
15-May-20 16:47 46.565675 -120.531780 238 1053ft 8kts
15-May-20 16:47 46.572348 -120.558117 290 1171ft 179kts
15-May-20 16:49 46.566027 -120.639515 220 4482ft 195kts
15-May-20 16:50 46.508804 -120.639742 158 6812ft 253kts
15-May-20 16:50 46.458493 -120.584980 125 8803ft 294kts
15-May-20 16:52 46.421266 -120.460936 94 10026ft 295kts
15-May-20 16:52 46.431283 -120.363581 67 10030ft 297kts
15-May-20 16:53 46.484131 -120.266165 38 11380ft 340kts
15-May-20 16:55 46.495919 -120.117145 108 14183ft 365kts
15-May-20 16:55 46.468934 -119.998021 107 15992ft 381kts
15-May-20 16:56 46.445921 -119.847377 73 17947ft 393kts
15-May-20 16:58 46.505420 -119.682662 56 20136ft 403kts
15-May-20 16:58 46.550364 -119.562376 58 21560ft 415kts
15-May-20 16:59 46.605980 -119.414004 54 23152ft 426kts
15-May-20 17:00 46.663561 -119.261719 55 24594ft 437kts
15-May-20 17:01 46.722089 -119.104361 55 25924ft 447kts
15-May-20 17:02 46.781972 -118.942253 55 27025ft 461kts
15-May-20 17:03 46.842170 -118.778224 56 28622ft 456kts
15-May-20 17:04 46.901079 -118.616784 55 30187ft 446kts
15-May-20 17:05 46.958898 -118.457345 55 31645ft 443kts
15-May-20 17:06 47.015853 -118.299349 56 33090ft 435kts
15-May-20 17:07 47.071247 -118.144779 56 34466ft 425kts
15-May-20 17:08 47.124794 -117.994521 53 35528ft 421kts
15-May-20 17:09 47.178122 -117.843975 53 36478ft 420kts
15-May-20 17:10 47.230798 -117.694506 53 37169ft 423kts
15-May-20 17:11 47.285488 -117.538342 54 37170ft 442kts
15-May-20 17:12 47.341878 -117.376317 54 37173ft 459kts
15-May-20 17:13 47.399056 -117.211007 55 37172ft 464kts
15-May-20 17:14 47.456512 -117.043888 56 37176ft 461kts
15-May-20 17:15 47.513544 -116.876933 58 37189ft 456kts
15-May-20 17:16 47.569602 -116.711760 58 37164ft 452kts
15-May-20 17:17 47.625139 -116.547059 58 37184ft 445kts
15-May-20 17:18 47.680927 -116.380536 58 37182ft 456kts
15-May-20 17:19 47.736643 -116.213170 59 37176ft 456kts
15-May-20 17:20 47.792127 -116.045430 59 37155ft 455kts
15-May-20 17:21 47.847050 -115.878288 59 37148ft 455kts
15-May-20 17:22 47.901308 -115.712077 59 37153ft 455kts
15-May-20 17:23 47.954834 -115.546970 59 36566ft 448kts
15-May-20 17:24 48.006026 -115.388133 58 33873ft 424kts
15-May-20 17:25 48.056106 -115.231632 60 29921ft 428kts
15-May-20 17:26 48.105334 -115.076790 62 26637ft 411kts
15-May-20 17:27 48.152121 -114.929558 63 24239ft 371kts
15-May-20 17:28 48.194510 -114.794793 63 22579ft 366kts
15-May-20 17:29 48.235011 -114.655563 81 19151ft 362kts
15-May-20 17:30 48.218469 -114.512444 104 16155ft 345kts
15-May-20 17:31 48.194624 -114.376792 104 13151ft 331kts
15-May-20 17:32 48.172575 -114.249892 105 11044ft 295kts
15-May-20 17:33 48.119053 -114.191337 172 11024ft 247kts
15-May-20 17:34 48.052380 -114.176832 172 11022ft 247kts
15-May-20 17:35 47.985363 -114.162401 173 11023ft 247kts
15-May-20 17:36 47.928069 -114.204508 223 10597ft 240kts
15-May-20 17:37 47.918944 -114.295982 280 10118ft 239kts
15-May-20 17:38 47.931404 -114.391697 280 9636ft 239kts
15-May-20 17:39 47.943945 -114.487618 280 9169ft 240kts
15-May-20 17:40 47.981920 -114.560402 353 8677ft 247kts
15-May-20 17:41 48.050833 -114.558408 0 8185ft 247kts
15-May-20 17:42 48.118275 -114.555662 1 7687ft 247kts
15-May-20 17:43 48.184609 -114.532832 22 7621ft 248kts
15-May-20 17:44 48.248366 -114.494528 22 7622ft 248kts
15-May-20 17:45 48.311467 -114.456501 22 7620ft 247kts
15-May-20 17:46 48.374731 -114.418232 22 7624ft 247kts
15-May-20 17:47 48.428853 -114.360447 60 6890ft 241kts
15-May-20 17:48 48.440405 -114.273325 109 6357ft 185kts
15-May-20 17:49 48.425288 -114.208488 135 5437ft 137kts
15-May-20 17:50 48.391751 -114.185596 181 4805ft 139kts
15-May-20 17:51 48.356871 -114.207489 210 3766ft 129kts
15-May-20 17:52 48.325994 -114.239332 209 3199ft 136kts
15-May-20 17:53 48.306592 -114.259056 169 2972ft 14kts
15-May-20 17:54 48.306234 -114.257976 64 2971ft 4kts
15-May-20 17:55 48.307980 -114.254740 114 2971ft 10kts

Navigation Log

Ident Type
Flight plan parsing failed, navigation log unavailable